Time;durP1;ratioP1;P1;durP2;ratioP2;P2;SDS_P1;SDS_P2;PMS_P1;PMS_P2;Temp;Humidity;BMP_temperature;BMP_pressure;BME280_temperature;BME280_humidity;BME280_pressure;Samples;Min_cycle;Max_cycle;Signal;HPM_P1;HPM_P2
2022/11/30 09:59:19;;;;;;;8.73;8.53;;;4.80;99.90;;;;;;5107685;27;2084324;-81
2022/11/30 10:01:48;;;;;;;9.10;8.80;;;4.40;99.90;;;;;;5172107;27;20238;-81
2022/11/30 10:04:24;;;;;;;9.17;8.87;;;4.30;99.90;;;;;;5169171;27;20292;-79
2022/11/30 10:07:03;;;;;;;9.17;8.87;;;4.20;99.90;;;;;;5137675;27;20216;-79
2022/11/30 10:09:44;;;;;;;9.30;9.00;;;4.20;99.90;;;;;;5133075;28;20243;-80
2022/11/30 10:12:19;;;;;;;9.77;9.47;;;4.20;99.90;;;;;;5134536;28;20228;-80
2022/11/30 10:15:25;;;;;;;9.20;8.90;;;4.30;99.90;;;;;;5134659;28;20236;-80
2022/11/30 10:17:56;;;;;;;9.40;9.10;;;4.30;99.90;;;;;;5133031;28;20236;-80
2022/11/30 10:20:52;;;;;;;9.60;9.30;;;4.30;99.90;;;;;;5134649;28;20252;-79
2022/11/30 10:23:41;;;;;;;9.40;9.10;;;4.40;99.90;;;;;;5134613;28;20263;-80
2022/11/30 10:26:12;;;;;;;9.47;9.17;;;4.40;99.90;;;;;;5133084;28;20267;-81
2022/11/30 10:28:50;;;;;;;12.00;11.50;;;4.40;99.90;;;;;;5133592;28;20244;-80
2022/11/30 10:31:30;;;;;;;9.23;8.93;;;4.50;99.90;;;;;;5133463;28;20232;-80
2022/11/30 10:34:09;;;;;;;9.20;8.90;;;4.40;99.90;;;;;;5131119;28;20235;-81
2022/11/30 10:36:41;;;;;;;8.80;8.60;;;4.40;99.90;;;;;;5122087;28;20288;-80
2022/11/30 10:39:19;;;;;;;8.80;8.60;;;4.40;99.90;;;;;;5117705;28;20247;-81
2022/11/30 10:41:53;;;;;;;8.90;8.70;;;4.50;99.90;;;;;;5133340;27;20227;-81
2022/11/30 10:44:27;;;;;;;8.93;8.73;;;4.50;99.90;;;;;;5138282;27;20228;-81
2022/11/30 10:47:02;;;;;;;9.20;8.90;;;4.40;99.90;;;;;;5138573;27;20292;-82
2022/11/30 10:49:31;;;;;;;8.93;8.67;;;4.40;99.90;;;;;;5138228;27;20224;-82
2022/11/30 10:52:04;;;;;;;9.30;9.00;;;4.30;99.90;;;;;;5138818;27;20225;-82
2022/11/30 10:54:32;;;;;;;9.20;8.90;;;4.20;99.90;;;;;;5148245;27;20296;-82
2022/11/30 10:57:03;;;;;;;9.40;9.10;;;4.30;99.90;;;;;;5153280;27;20248;-82
2022/11/30 10:59:41;;;;;;;9.40;9.10;;;4.30;99.90;;;;;;5140422;27;20228;-83
2022/11/30 11:02:40;;;;;;;9.23;8.93;;;4.40;99.90;;;;;;5137366;27;20270;-81
2022/11/30 11:05:16;;;;;;;9.50;9.20;;;4.40;99.90;;;;;;5138808;27;20351;-80
2022/11/30 11:07:53;;;;;;;9.50;9.20;;;4.40;99.90;;;;;;5154012;27;20235;-80
2022/11/30 11:10:28;;;;;;;9.50;9.20;;;4.30;99.90;;;;;;5139151;27;20299;-80
2022/11/30 11:12:57;;;;;;;9.53;9.23;;;4.20;99.90;;;;;;5140644;28;20228;-80
2022/11/30 11:15:27;;;;;;;9.70;9.40;;;4.20;99.90;;;;;;5140587;28;20252;-82
2022/11/30 11:18:26;;;;;;;9.80;9.50;;;4.20;99.90;;;;;;5140454;28;20217;-81
2022/11/30 11:21:06;;;;;;;9.43;9.13;;;4.20;99.90;;;;;;5139504;28;20272;-81
2022/11/30 11:23:37;;;;;;;9.37;9.07;;;4.20;99.90;;;;;;5137457;28;20228;-80
2022/11/30 11:26:07;;;;;;;9.20;8.90;;;4.30;99.90;;;;;;5128879;28;20236;-82
2022/11/30 11:28:36;;;;;;;9.30;9.00;;;4.30;99.90;;;;;;5123862;28;20298;-81
2022/11/30 11:31:19;;;;;;;8.97;8.70;;;4.30;99.90;;;;;;5123138;28;20227;-81
2022/11/30 11:33:54;;;;;;;8.73;8.53;;;4.40;99.90;;;;;;5124723;28;20237;-81
2022/11/30 11:36:28;;;;;;;8.70;8.50;;;4.40;99.90;;;;;;5123722;28;20331;-82
2022/11/30 11:38:58;;;;;;;8.70;8.50;;;4.50;99.90;;;;;;5124464;28;20227;-81
2022/11/30 11:41:30;;;;;;;8.83;8.63;;;4.50;99.90;;;;;;5123283;28;20788;-83
2022/11/30 11:44:02;;;;;;;8.73;8.53;;;4.50;99.90;;;;;;5124588;28;20236;-83
2022/11/30 11:46:32;;;;;;;8.67;8.47;;;4.50;99.90;;;;;;5124201;28;20247;-83
2022/11/30 11:49:31;;;;;;;8.77;8.57;;;4.60;99.90;;;;;;5122814;28;20228;-84
2022/11/30 11:52:05;;;;;;;8.70;8.50;;;4.60;99.90;;;;;;5126606;28;20282;-83
2022/11/30 11:54:40;;;;;;;9.40;9.10;;;4.60;99.90;;;;;;5126007;28;20288;-83
2022/11/30 11:57:12;;;;;;;9.23;8.93;;;4.40;99.90;;;;;;5126645;28;20232;-83
2022/11/30 11:59:49;;;;;;;9.20;8.90;;;4.40;99.90;;;;;;5127668;28;20255;-83
2022/11/30 12:02:28;;;;;;;9.20;8.90;;;4.40;99.90;;;;;;5126853;28;20233;-82
2022/11/30 12:05:10;;;;;;;8.73;8.53;;;4.40;99.90;;;;;;5130320;28;20240;-83
2022/11/30 12:07:44;;;;;;;9.30;9.00;;;4.30;99.90;;;;;;5127927;28;20228;-82
2022/11/30 12:10:27;;;;;;;9.20;8.90;;;4.50;99.90;;;;;;5125007;28;20232;-81
2022/11/30 12:12:55;;;;;;;9.57;9.27;;;4.50;99.90;;;;;;5123588;28;20223;-81
2022/11/30 12:15:32;;;;;;;9.40;9.10;;;4.60;99.90;;;;;;5123534;28;20239;-81
2022/11/30 12:18:07;;;;;;;9.33;9.03;;;4.60;99.90;;;;;;5124027;28;20239;-81
2022/11/30 12:20:52;;;;;;;9.10;8.80;;;4.70;99.90;;;;;;5122350;27;20276;-81
2022/11/30 12:24:08;;;;;;;9.50;9.20;;;4.70;99.90;;;;;;5121928;28;20229;-82
2022/11/30 12:26:42;;;;;;;9.20;8.90;;;4.80;99.90;;;;;;5096301;28;20288;-82
2022/11/30 12:29:28;;;;;;;9.57;9.27;;;4.70;99.90;;;;;;5123385;28;20236;-80
2022/11/30 12:32:23;;;;;;;9.40;9.10;;;4.70;99.90;;;;;;5124168;28;20228;-81
2022/11/30 12:35:10;;;;;;;8.90;8.70;;;4.60;99.90;;;;;;5127792;28;20233;-82
2022/11/30 12:38:23;;;;;;;9.13;8.83;;;4.50;99.90;;;;;;5116499;22;20254;-82
2022/11/30 12:44:07;;;;;;;9.37;9.07;;;4.40;99.90;;;;;;5084917;28;20221;-82
2022/11/30 12:46:47;;;;;;;9.40;9.10;;;4.40;99.90;;;;;;5090498;28;20255;-82
2022/11/30 12:49:32;;;;;;;9.30;9.00;;;4.40;99.90;;;;;;5105599;28;20241;-82
2022/11/30 12:52:12;;;;;;;9.00;8.80;;;4.40;99.90;;;;;;5105451;28;20222;-82
2022/11/30 12:54:49;;;;;;;9.50;9.20;;;4.50;99.90;;;;;;5105220;28;20229;-82
2022/11/30 12:57:35;;;;;;;9.70;9.40;;;4.50;99.90;;;;;;5103903;28;20277;-81
2022/11/30 13:00:14;;;;;;;9.60;9.30;;;4.60;99.90;;;;;;5105956;28;20235;-81
2022/11/30 13:03:09;;;;;;;9.50;9.20;;;4.60;99.90;;;;;;5104780;28;20229;-82
2022/11/30 13:05:51;;;;;;;9.70;9.40;;;4.40;99.90;;;;;;5104882;28;20283;-82
2022/11/30 13:08:29;;;;;;;9.60;9.30;;;4.40;99.90;;;;;;5104362;28;20221;-82
2022/11/30 13:11:05;;;;;;;9.70;9.40;;;4.40;99.90;;;;;;5105468;28;20233;-81
2022/11/30 13:13:36;;;;;;;9.60;9.30;;;4.50;99.90;;;;;;5104929;28;20240;-81
2022/11/30 13:19:00;;;;;;;9.27;8.97;;;4.60;99.90;;;;;;5124185;28;20320;-82
2022/11/30 13:24:37;;;;;;;8.97;8.77;;;4.70;99.90;;;;;;5122730;28;20697;-81
2022/11/30 13:27:12;;;;;;;9.07;8.87;;;4.60;99.90;;;;;;5125295;28;20231;-81
2022/11/30 13:30:12;;;;;;;8.70;8.50;;;4.60;99.90;;;;;;5125598;28;20228;-82
2022/11/30 13:32:39;;;;;;;8.43;8.23;;;4.40;99.90;;;;;;5124638;27;20245;-82
2022/11/30 13:35:52;;;;;;;8.90;8.70;;;4.40;99.90;;;;;;5125118;28;20232;-81
2022/11/30 13:38:22;;;;;;;9.40;9.10;;;4.30;99.90;;;;;;5125442;28;20236;-80
2022/11/30 13:40:59;;;;;;;9.70;9.40;;;4.20;99.90;;;;;;5125867;28;20217;-80
2022/11/30 13:43:45;;;;;;;9.60;9.30;;;4.30;99.90;;;;;;5125163;28;20319;-81
2022/11/30 13:46:24;;;;;;;9.50;9.20;;;4.40;99.90;;;;;;5124141;28;20281;-83
2022/11/30 13:51:58;;;;;;;9.67;9.37;;;4.40;99.90;;;;;;5131084;28;20231;-80
2022/11/30 13:54:45;;;;;;;9.50;9.20;;;4.40;99.90;;;;;;5126688;28;20248;-81
2022/11/30 13:58:09;;;;;;;9.70;9.40;;;4.40;99.90;;;;;;5122993;28;20230;-83
2022/11/30 14:01:31;;;;;;;9.47;9.17;;;4.40;99.90;;;;;;5095469;28;20226;-81
2022/11/30 14:04:37;;;;;;;9.40;9.10;;;4.30;99.90;;;;;;5095525;28;20217;-81
2022/11/30 14:07:39;;;;;;;9.50;9.20;;;4.20;99.90;;;;;;5106550;28;20229;-81
2022/11/30 14:13:31;;;;;;;9.70;9.40;;;4.10;99.90;;;;;;5087619;28;20214;-83
2022/11/30 14:16:10;;;;;;;9.40;9.10;;;4.00;99.90;;;;;;5097718;28;20239;-83
2022/11/30 14:18:55;;;;;;;9.60;9.30;;;4.00;99.90;;;;;;5089783;28;20304;-81
2022/11/30 14:21:44;;;;;;;9.30;9.00;;;4.10;99.90;;;;;;5105621;28;20275;-81
2022/11/30 14:28:20;;;;;;;9.30;9.00;;;4.30;99.90;;;;;;5088773;28;20221;-82
2022/11/30 14:31:18;;;;;;;9.23;8.93;;;4.30;99.90;;;;;;5105017;28;20247;-82
2022/11/30 14:34:39;;;;;;;9.60;9.30;;;4.40;99.90;;;;;;5104407;28;20241;-82
2022/11/30 14:37:16;;;;;;;9.10;8.80;;;4.40;99.90;;;;;;5021925;28;20243;-83
2022/11/30 14:39:54;;;;;;;9.50;9.20;;;4.40;99.90;;;;;;5091516;28;20283;-83
2022/11/30 14:45:20;;;;;;;10.00;9.70;;;4.10;99.90;;;;;;5107851;28;20217;-82
2022/11/30 14:47:58;;;;;;;9.63;9.33;;;4.10;99.90;;;;;;5109337;28;20230;-83
2022/11/30 14:50:27;;;;;;;9.70;9.40;;;4.10;99.90;;;;;;5108675;28;20317;-82
2022/11/30 14:53:12;;;;;;;9.50;9.20;;;4.10;99.90;;;;;;5108326;28;20236;-84
2022/11/30 14:55:51;;;;;;;9.50;9.20;;;4.10;99.90;;;;;;5107923;28;20256;-82
2022/11/30 14:58:32;;;;;;;9.50;9.20;;;4.20;99.90;;;;;;5107540;28;20233;-83
2022/11/30 15:04:32;;;;;;;9.40;9.10;;;4.10;99.90;;;;;;5107297;28;20267;-83
2022/11/30 15:10:17;;;;;;;10.00;9.70;;;4.10;99.90;;;;;;5103823;28;20324;-87
2022/11/30 15:12:52;;;;;;;8.47;8.27;;;4.40;99.90;;;;;;5103277;28;20218;-83
2022/11/30 15:15:25;;;;;;;9.30;9.00;;;4.50;99.90;;;;;;5104177;28;20243;-83
2022/11/30 15:18:02;;;;;;;9.10;8.80;;;4.50;99.90;;;;;;5089442;28;20230;-83
2022/11/30 15:20:38;;;;;;;9.50;9.20;;;4.50;99.90;;;;;;5097294;28;20217;-83
2022/11/30 15:23:16;;;;;;;9.50;9.20;;;4.40;99.90;;;;;;5107225;28;20287;-82
2022/11/30 15:25:48;;;;;;;9.50;9.20;;;4.30;99.90;;;;;;5107172;28;20259;-83
2022/11/30 15:28:23;;;;;;;8.80;8.60;;;4.20;99.90;;;;;;5107157;28;20237;-82
2022/11/30 15:31:02;;;;;;;9.20;8.90;;;4.00;99.90;;;;;;5104668;28;20229;-82
2022/11/30 16:01:09;;;;;;;;;;;;;;;;;;;;;
2022/11/30 16:19:33;;;;;;;9.10;8.80;;;3.30;99.90;;;;;;5149017;22;20234;-83
2022/11/30 16:29:43;;;;;;;8.30;8.10;;;3.40;99.90;;;;;;4900705;29;20236;-82
2022/11/30 16:40:25;;;;;;;8.30;8.10;;;3.30;99.90;;;;;;4999250;28;20311;-82
2022/11/30 16:47:24;;;;;;;7.97;7.77;;;3.10;99.90;;;;;;5059637;28;20246;-81
2022/11/30 16:50:32;;;;;;;8.77;8.57;;;3.10;99.90;;;;;;4999865;28;20247;-82
2022/11/30 17:03:48;;;;;;;9.30;9.00;;;3.20;99.90;;;;;;5039208;28;20236;-81
2022/11/30 17:09:40;;;;;;;9.27;8.97;;;3.20;99.90;;;;;;5044805;28;20293;-82
2022/11/30 17:15:44;;;;;;;9.20;8.90;;;3.10;99.90;;;;;;5043198;28;20234;-82
2022/11/30 17:18:23;;;;;;;8.60;8.40;;;3.10;99.90;;;;;;5055507;28;20235;-84
2022/11/30 17:21:17;;;;;;;8.77;8.57;;;3.10;99.90;;;;;;5047679;28;20234;-81
2022/11/30 17:39:34;;;;;;;8.60;8.40;;;2.90;99.90;;;;;;5046766;28;20239;-82
2022/11/30 17:54:51;;;;;;;8.03;7.83;;;3.00;99.90;;;;;;5043507;28;20222;-83
2022/11/30 18:01:02;;;;;;;7.93;7.73;;;2.90;99.90;;;;;;5043569;28;20215;-83
2022/11/30 18:04:03;;;;;;;8.23;8.03;;;2.90;99.90;;;;;;5045473;28;20274;-83
2022/11/30 18:10:06;;;;;;;;;;;;;;;;;;;;;
2022/11/30 18:13:03;;;;;;;7.90;7.70;;;2.90;99.90;;;;;;5044995;28;20223;-83
2022/11/30 18:15:59;;;;;;;7.70;7.50;;;2.90;99.90;;;;;;5045094;28;20224;-82
2022/11/30 18:18:35;;;;;;;7.70;7.50;;;2.90;99.90;;;;;;5044153;28;20244;-83
2022/11/30 18:21:54;;;;;;;7.70;7.50;;;2.90;99.90;;;;;;5048295;28;20283;-82
2022/11/30 18:35:16;;;;;;;7.83;7.63;;;2.90;99.90;;;;;;5042915;28;20216;-83
2022/11/30 18:37:43;;;;;;;8.17;7.97;;;3.00;99.90;;;;;;5078823;22;20234;-81
2022/11/30 18:40:12;;;;;;;8.10;7.90;;;2.90;99.90;;;;;;5063993;28;20238;-81
2022/11/30 18:42:42;;;;;;;8.20;8.00;;;2.90;99.90;;;;;;5062494;28;20231;-81
2022/11/30 18:45:11;;;;;;;8.70;8.50;;;2.90;99.90;;;;;;5062322;28;20235;-81
2022/11/30 18:47:38;;;;;;;8.77;8.57;;;2.90;99.90;;;;;;5063128;28;20235;-80
2022/11/30 18:50:08;;;;;;;9.13;8.83;;;2.90;99.90;;;;;;5062747;28;20265;-81
2022/11/30 18:52:36;;;;;;;9.23;8.93;;;2.90;99.90;;;;;;5062951;28;20253;-81
2022/11/30 18:55:03;;;;;;;9.50;9.20;;;2.90;99.90;;;;;;5063329;28;20238;-81
2022/11/30 18:57:31;;;;;;;9.33;9.03;;;2.90;99.90;;;;;;5065509;28;20246;-81
2022/11/30 19:00:00;;;;;;;8.27;8.07;;;2.90;99.90;;;;;;5064503;28;20257;-81
2022/11/30 19:02:28;;;;;;;8.27;8.07;;;3.00;99.90;;;;;;5063169;28;20235;-81
2022/11/30 19:04:55;;;;;;;8.03;7.83;;;3.00;99.90;;;;;;5064517;28;20250;-82
2022/11/30 19:07:23;;;;;;;8.40;8.20;;;3.10;99.90;;;;;;5060115;28;20266;-83
2022/11/30 19:09:51;;;;;;;8.20;8.00;;;3.10;99.90;;;;;;5054480;28;20260;-80
2022/11/30 19:12:19;;;;;;;8.30;8.10;;;3.20;99.90;;;;;;5064237;28;20237;-81
2022/11/30 19:14:49;;;;;;;8.20;8.00;;;3.20;99.90;;;;;;5063820;28;20263;-80
2022/11/30 19:17:21;;;;;;;8.50;8.30;;;3.20;99.90;;;;;;5062990;28;20239;-81
2022/11/30 19:19:48;;;;;;;8.50;8.30;;;3.20;99.90;;;;;;5063320;28;20262;-82
2022/11/30 19:22:16;;;;;;;8.57;8.37;;;3.20;99.90;;;;;;5060370;28;20254;-81
2022/11/30 19:24:44;;;;;;;7.90;7.70;;;3.20;99.90;;;;;;5061168;28;20250;-80
2022/11/30 19:27:12;;;;;;;7.90;7.70;;;3.20;99.90;;;;;;5059818;28;20230;-80
2022/11/30 19:29:39;;;;;;;7.70;7.50;;;3.10;99.90;;;;;;5060716;28;20258;-81
2022/11/30 19:32:09;;;;;;;8.20;8.00;;;3.10;99.90;;;;;;5060283;28;20237;-81
2022/11/30 19:34:38;;;;;;;7.80;7.60;;;3.00;99.90;;;;;;5060926;28;20337;-81
2022/11/30 19:37:06;;;;;;;8.00;7.80;;;3.00;99.90;;;;;;5060391;28;20238;-81
2022/11/30 19:39:33;;;;;;;7.90;7.70;;;2.90;99.90;;;;;;5061221;28;20324;-81
2022/11/30 19:42:03;;;;;;;7.80;7.60;;;3.00;99.90;;;;;;5058983;28;20223;-81
2022/11/30 19:44:33;;;;;;;7.80;7.60;;;3.00;99.90;;;;;;5061547;28;20254;-81
2022/11/30 19:47:01;;;;;;;8.00;7.80;;;3.00;99.90;;;;;;5061027;28;20230;-81
2022/11/30 19:49:29;;;;;;;8.00;7.80;;;3.00;99.90;;;;;;5062019;28;20381;-80
2022/11/30 19:52:00;;;;;;;8.17;7.97;;;3.00;99.90;;;;;;5060090;28;20257;-80
2022/11/30 19:54:28;;;;;;;8.17;7.97;;;3.00;99.90;;;;;;5063501;28;20707;-80
2022/11/30 19:56:57;;;;;;;8.47;8.27;;;3.00;99.90;;;;;;5060273;28;20235;-80
2022/11/30 19:59:25;;;;;;;8.40;8.20;;;3.00;99.90;;;;;;5060918;28;20235;-81
2022/11/30 20:01:53;;;;;;;8.27;8.07;;;3.10;99.90;;;;;;5060363;28;20285;-82
2022/11/30 20:04:22;;;;;;;8.30;8.10;;;3.10;99.90;;;;;;5064531;28;20231;-81
2022/11/30 20:06:50;;;;;;;9.00;8.80;;;3.10;99.90;;;;;;5068637;28;20235;-81
2022/11/30 20:09:25;;;;;;;9.17;8.87;;;3.10;99.90;;;;;;5060832;28;20235;-81
2022/11/30 20:11:54;;;;;;;9.40;9.10;;;3.10;99.90;;;;;;5068204;28;20264;-82
2022/11/30 20:14:22;;;;;;;9.30;9.00;;;3.10;99.90;;;;;;5070499;28;20261;-82
2022/11/30 20:16:52;;;;;;;9.40;9.10;;;3.10;99.90;;;;;;5063018;28;20239;-82
2022/11/30 20:19:19;;;;;;;9.10;8.80;;;3.10;99.90;;;;;;5062920;28;20230;-81
2022/11/30 20:21:47;;;;;;;8.30;8.10;;;3.10;99.90;;;;;;5061689;28;20277;-80
2022/11/30 20:24:15;;;;;;;8.50;8.30;;;3.10;99.90;;;;;;5061740;28;20230;-81
2022/11/30 20:26:45;;;;;;;8.30;8.10;;;3.10;99.90;;;;;;5059633;28;20334;-82
2022/11/30 20:29:16;;;;;;;8.40;8.20;;;3.10;99.90;;;;;;5057700;28;20255;-81
2022/11/30 20:31:47;;;;;;;8.10;7.90;;;3.10;99.90;;;;;;5054633;28;20306;-80
2022/11/30 20:34:15;;;;;;;7.90;7.70;;;3.10;99.90;;;;;;5053109;28;20239;-82
2022/11/30 20:36:44;;;;;;;7.83;7.63;;;3.20;99.90;;;;;;5039880;28;20263;-82
2022/11/30 20:39:12;;;;;;;7.90;7.70;;;3.20;99.90;;;;;;5040614;28;20274;-82
2022/11/30 20:41:41;;;;;;;8.53;8.33;;;3.20;99.90;;;;;;5039641;28;20238;-82
2022/11/30 20:44:14;;;;;;;8.63;8.43;;;3.30;99.90;;;;;;5040889;28;20306;-82
2022/11/30 20:46:42;;;;;;;8.50;8.30;;;3.40;99.90;;;;;;5040458;28;20232;-82
2022/11/30 20:49:16;;;;;;;8.40;8.20;;;3.30;99.90;;;;;;5040290;28;20251;-82
2022/11/30 20:51:45;;;;;;;8.20;8.00;;;3.30;99.90;;;;;;5040532;28;20299;-82
2022/11/30 20:54:16;;;;;;;8.70;8.50;;;3.30;99.90;;;;;;5039989;28;20318;-82
2022/11/30 20:56:44;;;;;;;8.80;8.60;;;3.40;99.90;;;;;;5041549;28;20259;-82
2022/11/30 20:59:18;;;;;;;8.70;8.50;;;3.40;99.90;;;;;;5042269;28;20243;-81
2022/11/30 21:01:48;;;;;;;8.50;8.30;;;3.40;99.90;;;;;;5042219;28;20262;-82
2022/11/30 21:04:16;;;;;;;8.70;8.50;;;3.50;99.90;;;;;;5045500;28;20282;-81
2022/11/30 21:06:45;;;;;;;8.50;8.30;;;3.50;99.90;;;;;;5055943;28;20235;-79
2022/11/30 21:09:14;;;;;;;8.50;8.30;;;3.50;99.90;;;;;;5056539;28;20226;-82
2022/11/30 21:11:42;;;;;;;8.67;8.47;;;3.50;99.90;;;;;;5050865;28;20236;-80
2022/11/30 21:14:11;;;;;;;8.60;8.40;;;3.40;99.90;;;;;;5046705;28;20228;-80
2022/11/30 21:16:41;;;;;;;8.80;8.60;;;3.50;99.90;;;;;;5043346;28;20223;-81
2022/11/30 21:19:10;;;;;;;8.80;8.60;;;3.50;99.90;;;;;;5042639;28;20231;-80
2022/11/30 21:21:41;;;;;;;8.73;8.53;;;3.40;99.90;;;;;;5041421;28;20235;-82
2022/11/30 21:24:11;;;;;;;8.77;8.57;;;3.40;99.90;;;;;;5041438;28;20231;-81
2022/11/30 21:26:41;;;;;;;8.83;8.63;;;3.30;99.90;;;;;;5041217;28;20243;-81
2022/11/30 21:29:13;;;;;;;8.80;8.60;;;3.30;99.90;;;;;;5041886;28;20259;-81
2022/11/30 21:31:43;;;;;;;9.30;9.00;;;3.20;99.90;;;;;;5040673;28;20246;-82
2022/11/30 21:34:12;;;;;;;9.20;8.90;;;3.20;99.90;;;;;;5042235;28;20287;-81
2022/11/30 21:36:42;;;;;;;9.20;8.93;;;3.20;99.90;;;;;;5041001;28;20266;-81
2022/11/30 21:39:12;;;;;;;8.90;8.70;;;3.20;99.90;;;;;;5040519;28;20232;-82
2022/11/30 21:41:41;;;;;;;8.83;8.63;;;3.30;99.90;;;;;;5040840;28;20231;-80
2022/11/30 21:44:12;;;;;;;9.00;8.80;;;3.30;99.90;;;;;;5040332;28;20242;-81
2022/11/30 21:46:41;;;;;;;8.93;8.73;;;3.30;99.90;;;;;;5039773;28;20227;-79
2022/11/30 21:49:09;;;;;;;8.87;8.67;;;3.40;99.90;;;;;;5041106;28;20263;-80
2022/11/30 21:51:46;;;;;;;8.77;8.57;;;3.30;99.90;;;;;;5049460;28;20261;-81
2022/11/30 21:54:14;;;;;;;8.73;8.53;;;3.30;99.90;;;;;;5044033;28;20327;-81
2022/11/30 21:59:26;;;;;;;8.80;8.60;;;3.20;99.90;;;;;;5043336;28;20270;-81
2022/11/30 22:01:55;;;;;;;7.90;7.70;;;3.20;99.90;;;;;;5044196;28;20315;-79
2022/11/30 22:04:23;;;;;;;8.30;8.10;;;3.30;99.90;;;;;;5042580;28;20299;-79
2022/11/30 22:09:33;;;;;;;8.20;8.00;;;3.40;99.90;;;;;;5041504;28;20219;-81
2022/11/30 22:12:00;;;;;;;8.23;8.03;;;3.40;99.90;;;;;;5039070;28;20286;-81
2022/11/30 22:14:28;;;;;;;8.43;8.23;;;3.40;99.90;;;;;;5039917;28;20322;-81
2022/11/30 22:16:58;;;;;;;8.13;7.93;;;3.40;99.90;;;;;;5045870;28;20257;-81
2022/11/30 22:19:26;;;;;;;8.10;7.90;;;3.50;99.90;;;;;;5060734;28;20227;-82
2022/11/30 22:21:54;;;;;;;8.23;8.03;;;3.50;99.90;;;;;;5062734;28;20253;-81
2022/11/30 22:24:22;;;;;;;8.27;8.07;;;3.50;99.90;;;;;;5062316;28;20273;-81
2022/11/30 22:26:49;;;;;;;8.07;7.87;;;3.50;99.90;;;;;;5059949;28;20265;-80
2022/11/30 22:29:19;;;;;;;8.00;7.80;;;3.50;99.90;;;;;;5053157;28;20281;-80
2022/11/30 22:31:49;;;;;;;8.23;8.03;;;3.50;99.90;;;;;;5051688;28;20238;-80
2022/11/30 22:34:19;;;;;;;8.23;8.03;;;3.50;99.90;;;;;;5060464;28;20234;-82
2022/11/30 22:36:47;;;;;;;8.20;8.00;;;3.50;99.90;;;;;;5061977;28;20249;-81
2022/11/30 22:39:17;;;;;;;8.30;8.10;;;3.50;99.90;;;;;;5064721;28;20234;-81
2022/11/30 22:41:46;;;;;;;8.33;8.13;;;3.60;99.90;;;;;;5066998;28;20246;-81
2022/11/30 22:44:19;;;;;;;8.80;8.60;;;3.60;99.90;;;;;;5066078;28;20263;-81
2022/11/30 22:46:46;;;;;;;8.50;8.30;;;3.70;99.90;;;;;;5068806;28;20262;-79
2022/11/30 22:49:18;;;;;;;8.70;8.50;;;3.70;99.90;;;;;;5067323;28;20266;-81
2022/11/30 22:51:48;;;;;;;8.20;8.00;;;3.70;99.90;;;;;;5066647;28;20234;-80
2022/11/30 22:54:15;;;;;;;8.88;8.68;;;3.70;99.90;;;;;;5069933;28;20453;-80
2022/11/30 22:56:45;;;;;;;8.43;8.23;;;3.80;99.90;;;;;;5049582;28;20310;-81
2022/11/30 22:59:13;;;;;;;8.27;8.07;;;3.80;99.90;;;;;;5061959;28;20282;-79
2022/11/30 23:01:44;;;;;;;8.30;8.10;;;3.80;99.90;;;;;;5061596;28;20247;-80
2022/11/30 23:04:14;;;;;;;8.40;8.20;;;3.60;99.90;;;;;;5061005;28;20259;-80
2022/11/30 23:06:44;;;;;;;8.07;7.87;;;3.50;99.90;;;;;;5063031;28;20262;-80
2022/11/30 23:09:15;;;;;;;8.30;8.10;;;3.50;99.90;;;;;;5063547;28;20242;-81
2022/11/30 23:11:43;;;;;;;7.90;7.70;;;3.60;99.90;;;;;;5053416;28;20266;-80
2022/11/30 23:14:15;;;;;;;8.10;7.90;;;3.60;99.90;;;;;;5064468;28;20258;-80
2022/11/30 23:16:43;;;;;;;8.40;8.20;;;3.50;99.90;;;;;;5061675;28;20246;-82
2022/11/30 23:19:12;;;;;;;8.40;8.20;;;3.50;99.90;;;;;;5061263;28;21152;-81
2022/11/30 23:21:44;;;;;;;8.20;8.00;;;3.60;99.90;;;;;;5060666;28;20234;-82
2022/11/30 23:24:19;;;;;;;8.40;8.20;;;3.60;99.90;;;;;;5062147;28;20277;-79
2022/11/30 23:26:47;;;;;;;8.20;8.00;;;3.60;99.90;;;;;;5063002;28;20230;-79
2022/11/30 23:29:17;;;;;;;8.10;7.90;;;3.50;99.90;;;;;;5062741;28;20239;-80
2022/11/30 23:31:45;;;;;;;8.30;8.10;;;3.50;99.90;;;;;;5061429;28;20238;-79
2022/11/30 23:34:16;;;;;;;8.10;7.90;;;3.50;99.90;;;;;;5061649;28;20258;-79
2022/11/30 23:36:45;;;;;;;8.07;7.87;;;3.50;99.90;;;;;;5062269;28;20285;-79
2022/11/30 23:39:15;;;;;;;7.90;7.70;;;3.50;99.90;;;;;;5067430;28;20257;-79
2022/11/30 23:41:44;;;;;;;7.87;7.67;;;3.60;99.90;;;;;;5061079;28;20245;-78
2022/11/30 23:44:12;;;;;;;8.10;7.90;;;3.60;99.90;;;;;;5060992;28;20237;-82
2022/11/30 23:46:41;;;;;;;7.90;7.70;;;3.60;99.90;;;;;;5059981;28;20227;-79
2022/11/30 23:49:09;;;;;;;8.03;7.83;;;3.60;99.90;;;;;;5061115;28;20302;-79
2022/11/30 23:51:37;;;;;;;7.80;7.60;;;3.60;99.90;;;;;;5073400;28;20620;-79
2022/11/30 23:54:06;;;;;;;8.00;7.80;;;3.60;99.90;;;;;;5073838;28;20249;-78
2022/11/30 23:56:33;;;;;;;8.00;7.80;;;3.60;99.90;;;;;;5074310;28;20239;-79
2022/11/30 23:59:01;;;;;;;8.03;7.83;;;3.60;99.90;;;;;;5074844;28;20265;-78
